createdAt,value
2024-04-30T00:04:50.021Z,13.83
2024-04-30T00:09:51.683Z,13.74
2024-04-30T00:14:54.263Z,13.43
2024-04-30T00:19:56.039Z,13.24
2024-04-30T00:24:57.870Z,13.06
2024-04-30T00:29:59.526Z,12.90
2024-04-30T00:35:01.220Z,12.74
2024-04-30T00:40:03.335Z,12.78
2024-04-30T00:45:05.715Z,12.77
2024-04-30T00:50:07.850Z,12.57
2024-04-30T00:55:09.504Z,12.41
2024-04-30T01:00:12.406Z,12.36
2024-04-30T01:05:14.069Z,12.19
2024-04-30T01:10:17.698Z,12.07
2024-04-30T01:15:19.372Z,12.09
2024-04-30T01:20:21.007Z,12.09
2024-04-30T01:25:22.676Z,11.97
2024-04-30T01:30:24.338Z,11.89
2024-04-30T01:35:26.002Z,11.81
2024-04-30T01:40:27.784Z,11.63
2024-04-30T01:45:29.457Z,11.48
2024-04-30T01:50:31.124Z,11.43
2024-04-30T01:55:32.865Z,11.38
2024-04-30T02:00:34.608Z,11.35
2024-04-30T02:05:36.327Z,11.06
2024-04-30T02:10:38.019Z,11.04
2024-04-30T02:15:39.713Z,10.98
2024-04-30T02:20:41.361Z,11.03
2024-04-30T02:25:43.006Z,11.03
2024-04-30T02:31:03.332Z,11.00
2024-04-30T02:36:09.279Z,11.05
2024-04-30T02:41:10.920Z,10.91
2024-04-30T02:46:12.590Z,11.03
2024-04-30T02:51:14.289Z,11.07
2024-04-30T02:56:15.958Z,11.19
2024-04-30T03:01:17.685Z,11.34
2024-04-30T03:06:19.386Z,11.32
2024-04-30T03:11:21.071Z,11.29
2024-04-30T03:16:22.748Z,11.26
2024-04-30T03:21:24.423Z,11.26
2024-04-30T03:26:26.081Z,11.04
2024-04-30T03:31:28.045Z,10.83
2024-04-30T03:36:29.743Z,10.81
2024-04-30T03:41:31.408Z,10.72
2024-04-30T03:46:33.094Z,10.58
2024-04-30T03:51:34.810Z,10.59
2024-04-30T03:56:36.455Z,10.42
2024-04-30T04:01:38.165Z,10.33
2024-04-30T04:06:39.828Z,10.25
2024-04-30T04:12:00.207Z,10.31
2024-04-30T04:17:01.770Z,10.20
2024-04-30T04:22:03.479Z,10.21
2024-04-30T04:27:05.438Z,10.36
2024-04-30T04:32:07.389Z,10.34
2024-04-30T04:37:09.360Z,10.55
2024-04-30T04:42:11.058Z,10.83
2024-04-30T04:47:12.756Z,11.55
2024-04-30T04:52:14.423Z,12.76
2024-04-30T04:57:16.112Z,13.80
2024-04-30T05:02:17.857Z,14.56
2024-04-30T05:07:19.587Z,14.81
2024-04-30T05:12:21.246Z,15.28
2024-04-30T05:17:22.918Z,16.33
2024-04-30T05:22:24.734Z,17.07
2024-04-30T05:27:26.412Z,17.18
2024-04-30T05:32:29.998Z,18.47
2024-04-30T05:37:32.176Z,19.06
2024-04-30T05:42:33.870Z,19.01
2024-04-30T05:47:35.586Z,17.79
2024-04-30T05:52:37.299Z,18.38
2024-04-30T05:57:38.964Z,19.58
2024-04-30T06:02:40.621Z,20.03
2024-04-30T06:07:42.380Z,20.12
2024-04-30T06:12:44.122Z,20.59
2024-04-30T06:17:45.913Z,20.27
2024-04-30T06:22:47.674Z,20.84
2024-04-30T06:27:49.382Z,20.83
2024-04-30T06:32:51.135Z,20.70
2024-04-30T06:37:56.139Z,21.00
2024-04-30T06:42:57.851Z,20.99
2024-04-30T06:47:59.662Z,22.05
2024-04-30T06:53:01.362Z,21.79
2024-04-30T06:58:09.503Z,21.79
2024-04-30T07:03:11.437Z,22.06
2024-04-30T07:08:13.104Z,23.02
2024-04-30T07:13:14.829Z,22.77
2024-04-30T07:18:17.699Z,22.67
2024-04-30T07:23:19.490Z,23.21
2024-04-30T07:28:21.183Z,24.43
2024-04-30T07:33:22.886Z,24.52
2024-04-30T07:38:24.623Z,24.47
2024-04-30T07:43:26.405Z,24.25
2024-04-30T07:48:28.211Z,22.63
2024-04-30T07:53:29.951Z,23.47
2024-04-30T07:58:31.675Z,23.25
2024-04-30T08:03:33.385Z,23.88
2024-04-30T08:08:35.040Z,24.28
2024-04-30T08:13:38.924Z,24.19
2024-04-30T08:18:40.715Z,25.55
2024-04-30T08:23:42.443Z,25.36
2024-04-30T08:28:44.204Z,24.82
2024-04-30T08:33:46.496Z,24.26
2024-04-30T08:38:48.223Z,24.45
2024-04-30T08:43:49.957Z,24.36
2024-04-30T08:48:51.617Z,24.28
2024-04-30T08:53:53.313Z,25.90
2024-04-30T08:58:55.064Z,25.80
2024-04-30T09:03:56.915Z,25.89
2024-04-30T09:08:58.757Z,26.16
2024-04-30T09:14:00.412Z,26.63
2024-04-30T09:19:02.073Z,26.29
2024-04-30T09:24:07.546Z,26.60
2024-04-30T09:29:09.308Z,26.97
2024-04-30T09:34:11.027Z,27.07
2024-04-30T09:39:12.818Z,26.21
2024-04-30T09:44:14.474Z,25.89
2024-04-30T09:49:16.146Z,26.52
2024-04-30T09:54:17.798Z,26.96
2024-04-30T09:59:19.453Z,27.25
2024-04-30T10:04:30.783Z,26.75
2024-04-30T10:09:32.539Z,27.39
2024-04-30T10:14:34.276Z,28.52
2024-04-30T10:19:45.565Z,28.01
2024-04-30T10:24:47.271Z,27.84
2024-04-30T10:29:49.499Z,27.38
2024-04-30T10:34:57.482Z,27.19
2024-04-30T10:40:17.284Z,28.32
2024-04-30T10:45:25.113Z,28.96
2024-04-30T10:50:27.762Z,27.72
2024-04-30T10:55:29.464Z,27.46
2024-04-30T11:00:31.961Z,27.17
2024-04-30T11:05:33.857Z,27.79
2024-04-30T11:10:37.023Z,27.56
2024-04-30T11:15:38.758Z,26.30
2024-04-30T11:20:40.407Z,25.88
2024-04-30T11:25:42.124Z,26.44
2024-04-30T11:30:43.819Z,27.42
2024-04-30T11:35:45.480Z,27.10
2024-04-30T11:40:47.194Z,27.83
2024-04-30T11:45:49.019Z,27.35
2024-04-30T11:50:50.944Z,26.66
2024-04-30T11:55:52.628Z,27.42
2024-04-30T12:00:54.334Z,26.74
2024-04-30T12:05:56.030Z,26.31
2024-04-30T12:10:57.730Z,26.10
2024-04-30T12:15:59.485Z,26.53
2024-04-30T12:21:01.252Z,27.51
2024-04-30T12:26:02.934Z,27.76
2024-04-30T12:31:04.755Z,27.47
2024-04-30T12:36:06.491Z,26.85
2024-04-30T12:41:08.146Z,27.23
2024-04-30T12:46:09.889Z,26.52
2024-04-30T12:51:15.451Z,26.10
2024-04-30T12:56:17.133Z,26.22
2024-04-30T13:01:21.573Z,26.09
2024-04-30T13:06:25.188Z,25.58
2024-04-30T13:11:26.894Z,25.38
2024-04-30T13:16:29.216Z,25.39
2024-04-30T13:21:31.488Z,25.69
2024-04-30T13:26:33.141Z,25.40
2024-04-30T13:31:36.847Z,25.35
2024-04-30T13:36:38.931Z,25.56
2024-04-30T13:41:40.621Z,25.70
2024-04-30T13:46:42.451Z,25.45
2024-04-30T13:51:45.281Z,25.30
2024-04-30T13:56:46.931Z,25.23
2024-04-30T14:01:48.907Z,25.35
2024-04-30T14:06:50.825Z,25.28
2024-04-30T14:11:52.470Z,25.25
2024-04-30T14:16:54.172Z,25.16
2024-04-30T14:21:55.855Z,25.30
2024-04-30T14:26:57.570Z,25.23
2024-04-30T14:31:59.243Z,25.45
2024-04-30T14:37:00.940Z,25.40
2024-04-30T14:42:02.632Z,25.33
2024-04-30T14:47:04.416Z,25.63
2024-04-30T14:52:06.266Z,25.49
2024-04-30T14:57:07.932Z,25.28
2024-04-30T15:02:09.572Z,25.29
2024-04-30T15:07:11.222Z,25.20
2024-04-30T15:12:12.890Z,25.07
2024-04-30T15:17:14.583Z,25.12
2024-04-30T15:22:16.516Z,25.25
2024-04-30T15:27:18.276Z,25.02
2024-04-30T15:32:20.023Z,25.00
2024-04-30T15:37:21.744Z,25.06
2024-04-30T15:42:24.524Z,24.89
2024-04-30T15:47:26.319Z,24.96
2024-04-30T15:52:28.089Z,25.34
2024-04-30T15:57:30.437Z,25.78
2024-04-30T16:02:32.226Z,25.99
2024-04-30T16:07:34.234Z,25.96
2024-04-30T16:12:35.962Z,26.21
2024-04-30T16:17:37.772Z,26.86
2024-04-30T16:22:39.563Z,27.64
2024-04-30T16:27:41.271Z,27.06
2024-04-30T16:32:43.021Z,26.98
2024-04-30T16:37:44.778Z,27.10
2024-04-30T16:42:46.488Z,27.26
2024-04-30T16:47:48.265Z,26.42
2024-04-30T16:52:49.984Z,26.07
2024-04-30T16:57:51.853Z,25.92
2024-04-30T17:02:53.686Z,25.87
2024-04-30T17:07:55.512Z,25.76
2024-04-30T17:12:57.266Z,25.56
2024-04-30T17:18:19.693Z,24.91
2024-04-30T17:23:21.481Z,24.38
2024-04-30T17:28:23.608Z,24.08
2024-04-30T17:33:25.527Z,23.94
2024-04-30T17:38:27.393Z,23.69
2024-04-30T17:43:29.780Z,23.35
2024-04-30T17:48:33.531Z,23.20
2024-04-30T17:53:35.248Z,23.07
2024-04-30T17:58:36.936Z,22.76
2024-04-30T18:03:38.746Z,22.53
2024-04-30T18:08:40.470Z,22.34
2024-04-30T18:13:44.362Z,22.21
2024-04-30T18:18:46.717Z,22.10
2024-04-30T18:23:48.502Z,21.98
2024-04-30T18:28:55.224Z,21.84
2024-04-30T18:33:57.330Z,21.71
2024-04-30T18:39:01.512Z,21.61
2024-04-30T18:44:03.224Z,21.53
2024-04-30T18:49:05.314Z,21.29
2024-04-30T18:54:07.115Z,21.05
2024-04-30T18:59:08.987Z,21.00
2024-04-30T19:04:10.741Z,20.90
2024-04-30T19:09:12.445Z,20.72
2024-04-30T19:14:14.831Z,20.43
2024-04-30T19:19:19.801Z,20.32
2024-04-30T19:24:23.528Z,20.29
2024-04-30T19:29:26.237Z,20.24
2024-04-30T19:34:27.999Z,20.08
2024-04-30T19:39:32.004Z,19.94
2024-04-30T19:44:34.049Z,19.94
2024-04-30T19:49:35.846Z,20.06
2024-04-30T19:54:37.560Z,20.16
2024-04-30T19:59:41.119Z,20.05
2024-04-30T20:04:43.420Z,19.84
2024-04-30T20:09:45.153Z,19.79
2024-04-30T20:14:46.999Z,19.67
2024-04-30T20:19:48.675Z,19.73
2024-04-30T20:24:50.405Z,19.86
2024-04-30T20:29:52.252Z,19.90
2024-04-30T20:34:53.953Z,19.54
2024-04-30T20:39:56.269Z,19.43
2024-04-30T20:44:57.993Z,19.50
2024-04-30T20:49:59.675Z,19.30
2024-04-30T20:55:01.370Z,19.17
2024-04-30T21:00:04.531Z,18.91
2024-04-30T21:05:06.605Z,18.58
2024-04-30T21:10:08.305Z,18.17
2024-04-30T21:15:09.967Z,18.01
2024-04-30T21:20:12.467Z,18.08
2024-04-30T21:25:14.298Z,18.12
2024-04-30T21:30:16.003Z,18.28
2024-04-30T21:35:17.705Z,18.19
2024-04-30T21:40:19.345Z,18.16
2024-04-30T21:45:21.047Z,17.96
2024-04-30T21:50:22.707Z,17.74
2024-04-30T21:55:24.342Z,17.46
2024-04-30T22:00:26.107Z,17.35
2024-04-30T22:05:27.845Z,17.33
2024-04-30T22:10:29.500Z,17.33
2024-04-30T22:15:31.249Z,17.20
2024-04-30T22:20:33.490Z,16.99
2024-04-30T22:25:35.132Z,16.79
2024-04-30T22:30:36.893Z,16.65
2024-04-30T22:35:38.614Z,16.29
2024-04-30T22:40:40.244Z,16.12
2024-04-30T22:45:41.885Z,16.14
2024-04-30T22:50:43.572Z,16.40
2024-04-30T22:55:45.206Z,16.57
2024-04-30T23:00:46.978Z,16.23
2024-04-30T23:05:48.668Z,15.76
2024-04-30T23:10:50.310Z,15.54
2024-04-30T23:15:51.999Z,15.47
2024-04-30T23:20:53.701Z,15.49
2024-04-30T23:25:55.360Z,15.44
2024-04-30T23:30:57.062Z,16.08
2024-04-30T23:35:58.767Z,17.37
2024-04-30T23:41:00.460Z,17.80
2024-04-30T23:46:02.676Z,17.76
2024-04-30T23:51:10.468Z,16.54
2024-04-30T23:56:12.484Z,15.89
